Terminal Aerodrome Forecast
Issued by NWS

Home | Current Version | Previous Version | Text Only | Print | Product List | Glossary On
Versions: 1 2 3 4 5 6 7 8 9 10 11 12 13 14 15 16
000
FTUS46 KPDT 060534
TAFRDM
TAF
KRDM 060534Z 0606/0706 VRB05KT P6SM SKC
     FM060900 17004KT P6SM SCT050 BKN100
     FM061800 34011KT P6SM BKN050 OVC100
     FM062100 34014G20KT P6SM VCSH BKN060 OVC100
     FM070300 VRB06KT P6SM SCT060 BKN120=

USA.gov is the U.S. government's official web portal to all federal, state and local government web resources and services.